Time;durP1;ratioP1;P1;durP2;ratioP2;P2;SDS_P1;SDS_P2;PMS_P1;PMS_P2;Temp;Humidity;BMP_temperature;BMP_pressure;BME280_temperature;BME280_humidity;BME280_pressure;Samples;Min_cycle;Max_cycle;Signal;HPM_P1;HPM_P2
2023/05/04 00:02:18;;;;;;;26.20;23.70;;;7.90;99.90;;;;;;5153511;27;20208;-79
2023/05/04 00:04:46;;;;;;;28.23;25.33;;;7.90;99.90;;;;;;5134254;27;20232;-79
2023/05/04 00:07:15;;;;;;;29.43;25.83;;;7.90;99.90;;;;;;5132719;28;20623;-79
2023/05/04 00:09:43;;;;;;;27.53;24.73;;;8.00;99.90;;;;;;5132869;28;20289;-77
2023/05/04 00:12:11;;;;;;;28.43;25.47;;;8.00;99.90;;;;;;5133992;27;20665;-79
2023/05/04 00:14:40;;;;;;;28.07;25.27;;;7.90;99.90;;;;;;5150368;27;20207;-79
2023/05/04 00:17:08;;;;;;;28.77;25.77;;;8.00;99.90;;;;;;5157037;27;20308;-78
2023/05/04 00:19:38;;;;;;;31.00;26.73;;;7.90;99.90;;;;;;5154861;27;20236;-77
2023/05/04 00:22:06;;;;;;;29.90;26.90;;;7.90;99.90;;;;;;5143178;27;20258;-79
2023/05/04 00:24:35;;;;;;;29.73;26.63;;;8.00;99.90;;;;;;5140808;27;20256;-76
2023/05/04 00:27:03;;;;;;;30.80;27.63;;;8.00;99.90;;;;;;5141156;27;20201;-75
2023/05/04 00:29:31;;;;;;;29.77;26.77;;;8.00;99.90;;;;;;5140257;27;20206;-75
2023/05/04 00:32:00;;;;;;;28.50;25.57;;;8.00;99.90;;;;;;5136144;27;20209;-79
2023/05/04 00:34:29;;;;;;;29.60;26.43;;;8.00;99.90;;;;;;5135958;27;20258;-77
2023/05/04 00:36:57;;;;;;;29.10;26.00;;;8.00;99.90;;;;;;5135664;27;20208;-77
2023/05/04 00:39:25;;;;;;;28.00;25.17;;;8.00;99.90;;;;;;5135893;27;20216;-77
2023/05/04 00:41:53;;;;;;;28.90;25.80;;;8.00;99.90;;;;;;5135279;27;20208;-77
2023/05/04 00:44:22;;;;;;;27.37;24.47;;;8.10;99.90;;;;;;5135442;27;20224;-79
2023/05/04 00:46:52;;;;;;;27.23;24.47;;;8.10;99.90;;;;;;5135700;27;20662;-78
2023/05/04 00:49:22;;;;;;;27.70;24.87;;;8.10;99.90;;;;;;5135482;27;20614;-79
2023/05/04 00:51:51;;;;;;;28.53;23.83;;;8.10;99.90;;;;;;5135142;27;20206;-76
2023/05/04 00:54:20;;;;;;;26.07;22.93;;;8.10;99.90;;;;;;5135755;27;20548;-76
2023/05/04 00:56:48;;;;;;;24.63;22.20;;;8.10;99.90;;;;;;5135346;27;20201;-77
2023/05/04 00:59:16;;;;;;;24.33;21.80;;;8.10;99.90;;;;;;5135655;27;20392;-79
2023/05/04 01:01:44;;;;;;;24.33;21.70;;;8.10;99.90;;;;;;5135129;27;20715;-79
2023/05/04 01:04:12;;;;;;;23.90;21.30;;;8.00;99.90;;;;;;5135311;27;20730;-78
2023/05/04 01:06:47;;;;;;;23.80;20.90;;;8.00;99.90;;;;;;5142517;27;20205;-78
2023/05/04 01:09:23;;;;;;;24.37;21.80;;;8.00;99.90;;;;;;5156400;27;20204;-78
2023/05/04 01:11:58;;;;;;;23.50;21.00;;;8.00;99.90;;;;;;5155297;27;20205;-77
2023/05/04 01:14:27;;;;;;;21.77;19.57;;;8.00;99.90;;;;;;5153693;27;20200;-78
2023/05/04 01:16:58;;;;;;;22.67;20.27;;;8.00;99.90;;;;;;5135130;27;20693;-79
2023/05/04 01:19:26;;;;;;;21.37;18.97;;;8.00;99.90;;;;;;5135326;27;20263;-79
2023/05/04 01:21:56;;;;;;;21.30;19.00;;;7.90;99.90;;;;;;5135151;27;20205;-80
2023/05/04 01:24:25;;;;;;;21.97;19.57;;;7.90;99.90;;;;;;5133836;27;20229;-80
2023/05/04 01:26:56;;;;;;;21.57;19.33;;;7.90;99.90;;;;;;5135480;27;20300;-78
2023/05/04 01:29:31;;;;;;;22.53;18.50;;;7.90;99.90;;;;;;5135285;27;20322;-78
2023/05/04 01:32:01;;;;;;;20.00;17.97;;;7.80;99.90;;;;;;5141996;27;20553;-78
2023/05/04 01:34:29;;;;;;;22.23;18.60;;;7.90;99.90;;;;;;5134720;27;20224;-77
2023/05/04 01:36:59;;;;;;;19.97;17.87;;;7.80;99.90;;;;;;5134635;27;20665;-78
2023/05/04 01:39:28;;;;;;;19.07;17.23;;;7.70;99.90;;;;;;5134343;27;20209;-79
2023/05/04 01:41:57;;;;;;;19.57;17.17;;;7.70;99.90;;;;;;5134024;27;20216;-79
2023/05/04 01:44:25;;;;;;;18.73;16.80;;;7.70;99.90;;;;;;5134716;27;20249;-80
2023/05/04 01:46:55;;;;;;;18.20;16.40;;;7.60;99.90;;;;;;5134827;27;20205;-77
2023/05/04 01:49:23;;;;;;;19.30;16.97;;;7.60;99.90;;;;;;5134119;27;20210;-77
2023/05/04 01:51:51;;;;;;;20.57;16.50;;;7.60;99.90;;;;;;5134179;27;20216;-78
2023/05/04 01:54:20;;;;;;;19.73;16.50;;;7.60;99.90;;;;;;5134667;27;20209;-78
2023/05/04 01:56:48;;;;;;;18.57;16.67;;;7.60;99.90;;;;;;5134035;27;20205;-77
2023/05/04 01:59:17;;;;;;;21.77;16.43;;;7.60;99.90;;;;;;5134548;27;20205;-79
2023/05/04 02:01:45;;;;;;;18.73;15.80;;;7.60;99.90;;;;;;5134655;27;20279;-78
2023/05/04 02:04:13;;;;;;;17.87;15.03;;;7.50;99.90;;;;;;5134395;27;20231;-79
2023/05/04 02:06:41;;;;;;;17.30;15.30;;;7.60;99.90;;;;;;5151562;27;20213;-78
2023/05/04 02:09:09;;;;;;;20.10;15.53;;;7.60;99.90;;;;;;5155548;27;20213;-75
2023/05/04 02:11:38;;;;;;;17.30;15.50;;;7.60;99.90;;;;;;5154755;27;20200;-78
2023/05/04 02:14:06;;;;;;;17.23;15.47;;;7.50;99.90;;;;;;5152027;27;20248;-77
2023/05/04 02:16:34;;;;;;;16.80;14.97;;;7.50;99.90;;;;;;5134188;27;20681;-76
2023/05/04 02:19:02;;;;;;;18.97;15.40;;;7.50;99.90;;;;;;5133937;27;20244;-75
2023/05/04 02:21:30;;;;;;;18.77;15.40;;;7.40;99.90;;;;;;5133812;27;20216;-76
2023/05/04 02:23:58;;;;;;;17.70;15.77;;;7.40;99.90;;;;;;5134003;27;20673;-75
2023/05/04 02:26:26;;;;;;;18.33;15.33;;;7.30;99.90;;;;;;5135012;27;20241;-77
2023/05/04 02:28:56;;;;;;;18.10;14.57;;;7.30;99.90;;;;;;5133799;27;20625;-76
2023/05/04 02:31:24;;;;;;;17.50;14.33;;;7.30;99.90;;;;;;5133457;27;20201;-77
2023/05/04 02:33:52;;;;;;;17.30;14.27;;;7.30;99.90;;;;;;5133006;27;20612;-78
2023/05/04 02:36:21;;;;;;;17.00;14.27;;;7.20;99.90;;;;;;5133354;27;20221;-79
2023/05/04 02:38:49;;;;;;;15.43;13.73;;;7.30;99.90;;;;;;5133734;27;20216;-77
2023/05/04 02:41:17;;;;;;;17.27;13.80;;;7.20;99.90;;;;;;5133574;27;20216;-78
2023/05/04 02:43:45;;;;;;;18.80;14.40;;;7.20;99.90;;;;;;5133969;27;20201;-79
2023/05/04 02:46:14;;;;;;;17.33;13.33;;;7.20;99.90;;;;;;5133940;27;20229;-75
2023/05/04 02:48:43;;;;;;;17.23;13.73;;;7.20;99.90;;;;;;5133587;27;20205;-77
2023/05/04 02:51:11;;;;;;;19.10;13.23;;;7.20;99.90;;;;;;5133773;27;20305;-80
2023/05/04 02:53:39;;;;;;;14.57;12.80;;;7.20;99.90;;;;;;5133057;27;20678;-78
2023/05/04 02:56:07;;;;;;;15.57;13.67;;;7.10;99.90;;;;;;5133572;27;20228;-79
2023/05/04 02:58:35;;;;;;;16.83;12.87;;;7.10;99.90;;;;;;5133859;27;20205;-76
2023/05/04 03:01:03;;;;;;;15.90;13.03;;;7.00;99.90;;;;;;5133998;27;20240;-77
2023/05/04 03:03:33;;;;;;;14.50;12.53;;;7.00;99.90;;;;;;5133211;27;20216;-79
2023/05/04 03:06:01;;;;;;;15.23;12.70;;;6.90;99.90;;;;;;5133541;27;20682;-78
2023/05/04 03:08:29;;;;;;;14.90;12.87;;;6.90;99.90;;;;;;5133382;27;20217;-79
2023/05/04 03:10:57;;;;;;;18.13;13.27;;;6.80;99.90;;;;;;5151881;27;20212;-78
2023/05/04 03:13:25;;;;;;;15.77;13.07;;;6.70;99.90;;;;;;5135376;27;20206;-79
2023/05/04 03:15:53;;;;;;;16.20;12.83;;;6.70;99.90;;;;;;5133573;27;20201;-78
2023/05/04 03:18:21;;;;;;;19.43;13.63;;;6.60;99.90;;;;;;5133517;27;20212;-79
2023/05/04 03:20:51;;;;;;;14.10;12.57;;;6.50;99.90;;;;;;5133037;27;20228;-77
2023/05/04 03:23:19;;;;;;;17.93;14.20;;;6.50;99.90;;;;;;5133074;28;20275;-79
2023/05/04 03:25:47;;;;;;;17.30;14.67;;;6.40;99.90;;;;;;5133153;28;20221;-79
2023/05/04 03:28:15;;;;;;;17.50;13.97;;;6.40;99.90;;;;;;5133052;27;20202;-77
2023/05/04 03:30:43;;;;;;;16.30;13.60;;;6.40;99.90;;;;;;5133210;28;20317;-78
2023/05/04 03:33:11;;;;;;;18.37;13.77;;;6.30;99.90;;;;;;5132553;28;20235;-78
2023/05/04 03:35:39;;;;;;;16.90;13.90;;;6.20;99.90;;;;;;5133024;28;20305;-78
2023/05/04 03:38:10;;;;;;;14.87;13.27;;;6.20;99.90;;;;;;5138398;27;20295;-77
2023/05/04 03:40:38;;;;;;;18.23;14.63;;;6.20;99.90;;;;;;5153692;27;20292;-76
2023/05/04 03:43:06;;;;;;;18.17;14.43;;;6.20;99.90;;;;;;5143655;27;20288;-78
2023/05/04 03:45:34;;;;;;;17.30;14.17;;;6.10;99.90;;;;;;5132757;27;20217;-77
2023/05/04 03:48:02;;;;;;;20.07;15.53;;;6.10;99.90;;;;;;5136405;27;20585;-77
2023/05/04 03:50:30;;;;;;;19.70;15.50;;;6.00;99.90;;;;;;5136773;27;20209;-77
2023/05/04 03:52:58;;;;;;;18.30;14.80;;;6.00;99.90;;;;;;5136489;27;20213;-77
2023/05/04 03:55:28;;;;;;;18.53;16.53;;;6.00;99.90;;;;;;5136777;27;20204;-79
2023/05/04 03:57:56;;;;;;;20.13;15.93;;;5.90;99.90;;;;;;5136972;27;20626;-78
2023/05/04 04:00:24;;;;;;;17.93;16.03;;;5.90;99.90;;;;;;5136784;27;20605;-79
2023/05/04 04:02:52;;;;;;;19.27;16.20;;;5.80;99.90;;;;;;5136431;27;20209;-77
2023/05/04 04:05:21;;;;;;;21.73;17.60;;;5.80;99.90;;;;;;5136362;27;20249;-76
2023/05/04 04:07:49;;;;;;;20.57;16.83;;;5.80;99.90;;;;;;5140054;27;20212;-78
2023/05/04 04:10:17;;;;;;;20.63;17.00;;;5.80;99.90;;;;;;5158046;27;20205;-77
2023/05/04 04:12:46;;;;;;;18.93;16.93;;;5.70;99.90;;;;;;5154064;27;20313;-76
2023/05/04 04:15:14;;;;;;;19.30;16.87;;;5.70;99.90;;;;;;5136799;27;20201;-79
2023/05/04 04:17:42;;;;;;;20.83;17.33;;;5.70;99.90;;;;;;5136361;27;20213;-78
2023/05/04 04:20:12;;;;;;;21.57;17.27;;;5.70;99.90;;;;;;5156742;27;20592;-77
2023/05/04 04:22:41;;;;;;;20.20;17.23;;;5.70;99.90;;;;;;5156509;27;20224;-76
2023/05/04 04:25:09;;;;;;;19.80;16.77;;;5.70;99.90;;;;;;5156936;27;20473;-78
2023/05/04 04:27:37;;;;;;;19.83;15.43;;;5.80;99.90;;;;;;5153090;27;20208;-77
2023/05/04 04:30:08;;;;;;;18.60;15.50;;;5.80;99.90;;;;;;5156849;27;20212;-77
2023/05/04 04:32:36;;;;;;;19.70;15.10;;;5.90;99.90;;;;;;5156644;27;20631;-79
2023/05/04 04:35:05;;;;;;;20.90;14.40;;;6.00;99.90;;;;;;5153270;27;20269;-79
2023/05/04 04:37:33;;;;;;;18.20;15.03;;;6.10;99.90;;;;;;5137082;27;20618;-77
2023/05/04 04:40:02;;;;;;;19.13;13.63;;;6.10;99.90;;;;;;5136020;27;20289;-77
2023/05/04 04:42:32;;;;;;;17.40;13.63;;;6.20;99.90;;;;;;5138664;27;20658;-76
2023/05/04 04:45:04;;;;;;;18.53;14.13;;;6.20;99.90;;;;;;5145928;27;20225;-75
2023/05/04 04:47:33;;;;;;;16.43;13.17;;;6.30;99.90;;;;;;5135888;27;20209;-78
2023/05/04 04:50:02;;;;;;;14.77;13.17;;;6.50;99.90;;;;;;5135979;27;20656;-78
2023/05/04 04:52:32;;;;;;;15.83;13.50;;;6.50;99.90;;;;;;5135279;27;20675;-78
2023/05/04 04:55:00;;;;;;;17.47;13.63;;;6.50;99.90;;;;;;5135269;27;20663;-77
2023/05/04 04:57:29;;;;;;;17.60;13.77;;;6.60;99.90;;;;;;5135551;27;20537;-78
2023/05/04 04:59:59;;;;;;;20.87;14.73;;;6.70;99.90;;;;;;5135655;27;20212;-79
2023/05/04 05:02:27;;;;;;;18.77;15.00;;;6.80;99.90;;;;;;5135605;27;20295;-79
2023/05/04 05:04:57;;;;;;;17.80;15.40;;;6.90;99.90;;;;;;5136181;27;20270;-79
2023/05/04 05:07:25;;;;;;;20.13;15.70;;;7.00;99.90;;;;;;5142881;27;20298;-79
2023/05/04 05:09:53;;;;;;;20.93;15.07;;;7.00;99.90;;;;;;5135495;27;20212;-79
2023/05/04 05:12:21;;;;;;;18.17;15.07;;;7.20;99.90;;;;;;5135468;27;20209;-78
2023/05/04 05:14:50;;;;;;;17.60;14.50;;;7.30;99.90;;;;;;5135508;27;20213;-78
2023/05/04 05:17:19;;;;;;;18.77;14.43;;;7.40;99.90;;;;;;5150284;27;20196;-78
2023/05/04 05:19:47;;;;;;;18.37;15.07;;;7.50;99.90;;;;;;5155727;27;20741;-76
2023/05/04 05:22:17;;;;;;;17.67;15.33;;;7.50;99.90;;;;;;5156336;27;20223;-77
2023/05/04 05:24:45;;;;;;;17.27;14.00;;;7.60;99.90;;;;;;5154464;27;20676;-77
2023/05/04 05:27:13;;;;;;;17.07;14.30;;;7.70;99.90;;;;;;5155795;27;20220;-76
2023/05/04 05:29:41;;;;;;;14.80;13.10;;;7.80;99.90;;;;;;5156018;27;20205;-78
2023/05/04 05:32:09;;;;;;;15.83;13.23;;;7.90;99.90;;;;;;5155833;27;20217;-78
2023/05/04 05:34:37;;;;;;;19.40;12.90;;;8.00;99.90;;;;;;5145248;27;20650;-79
2023/05/04 05:37:05;;;;;;;15.97;12.43;;;8.10;99.90;;;;;;5144344;27;20654;-77
2023/05/04 05:39:36;;;;;;;21.27;12.50;;;8.20;99.90;;;;;;5155572;27;20231;-78
2023/05/04 05:42:04;;;;;;;15.90;11.63;;;8.30;99.90;;;;;;5142970;27;20255;-77
2023/05/04 05:44:36;;;;;;;14.83;12.53;;;8.40;99.90;;;;;;5135234;27;20316;-77
2023/05/04 05:47:04;;;;;;;17.13;11.63;;;8.60;99.90;;;;;;5134524;27;20236;-77
2023/05/04 05:49:32;;;;;;;16.70;12.50;;;8.70;99.90;;;;;;5133798;27;20233;-79
2023/05/04 05:52:01;;;;;;;14.70;11.83;;;8.90;99.90;;;;;;5150922;27;20572;-76
2023/05/04 05:54:30;;;;;;;14.00;11.23;;;9.00;99.90;;;;;;5155372;27;20290;-78
2023/05/04 05:56:59;;;;;;;12.70;10.40;;;9.30;99.90;;;;;;5154835;27;20196;-76
2023/05/04 05:59:28;;;;;;;11.83;9.50;;;9.70;99.90;;;;;;5145586;27;20651;-78
2023/05/04 06:01:56;;;;;;;13.17;9.77;;;10.50;99.90;;;;;;5134827;27;20206;-78
2023/05/04 06:04:24;;;;;;;11.43;8.50;;;11.10;99.90;;;;;;5134280;27;20211;-77
2023/05/04 06:06:52;;;;;;;11.40;9.33;;;11.90;99.90;;;;;;5153705;27;20259;-75
2023/05/04 06:09:20;;;;;;;11.03;8.37;;;12.70;99.90;;;;;;5134972;27;20567;-76
2023/05/04 06:11:48;;;;;;;9.77;7.80;;;13.30;99.90;;;;;;5134553;27;20208;-76
2023/05/04 06:14:18;;;;;;;9.27;7.80;;;13.90;99.90;;;;;;5134472;27;20206;-76
2023/05/04 06:16:46;;;;;;;9.20;8.10;;;13.90;99.90;;;;;;5134255;27;20233;-78
2023/05/04 06:19:14;;;;;;;11.10;8.00;;;14.80;99.90;;;;;;5134054;27;20732;-77
2023/05/04 06:21:42;;;;;;;9.03;7.23;;;15.00;99.90;;;;;;5133694;27;20671;-75
2023/05/04 06:24:10;;;;;;;9.60;7.80;;;14.30;99.90;;;;;;5133811;27;20659;-76
2023/05/04 06:26:38;;;;;;;8.80;7.57;;;14.70;99.90;;;;;;5134087;27;20304;-77
2023/05/04 06:29:06;;;;;;;10.47;7.00;;;14.70;99.90;;;;;;5133914;27;20202;-75
2023/05/04 06:31:36;;;;;;;9.63;7.50;;;15.50;99.90;;;;;;5134298;27;20228;-76
2023/05/04 06:34:04;;;;;;;8.77;7.30;;;16.40;99.90;;;;;;5134158;27;20229;-78
2023/05/04 06:36:32;;;;;;;9.43;7.67;;;16.40;99.90;;;;;;5133540;27;20209;-74
2023/05/04 06:39:00;;;;;;;7.37;6.67;;;17.10;99.90;;;;;;5133612;27;20288;-77
2023/05/04 06:41:28;;;;;;;7.33;6.17;;;17.60;99.90;;;;;;5133468;27;20670;-76
2023/05/04 06:43:58;;;;;;;8.73;6.90;;;18.40;99.90;;;;;;5133306;27;20212;-79
2023/05/04 06:46:27;;;;;;;9.27;6.53;;;17.90;99.90;;;;;;5142383;27;20578;-76
2023/05/04 06:48:57;;;;;;;7.83;6.63;;;18.00;99.90;;;;;;5148284;27;20240;-78
2023/05/04 06:51:25;;;;;;;7.90;6.70;;;17.80;99.90;;;;;;5153698;27;20224;-76
2023/05/04 06:53:53;;;;;;;9.80;7.27;;;17.20;99.90;;;;;;5153685;27;20213;-75
2023/05/04 06:56:23;;;;;;;8.73;6.97;;;16.50;99.90;;;;;;5146582;27;20636;-75
2023/05/04 06:58:51;;;;;;;10.43;6.10;;;16.50;99.90;;;;;;5132797;27;20217;-76
2023/05/04 07:01:19;;;;;;;7.73;6.33;;;17.80;99.90;;;;;;5132623;27;20254;-73
2023/05/04 07:03:48;;;;;;;7.03;6.33;;;17.80;99.90;;;;;;5150147;27;20277;-75
2023/05/04 07:06:18;;;;;;;7.77;6.60;;;18.70;99.90;;;;;;5149769;27;20201;-75
2023/05/04 07:08:46;;;;;;;7.40;6.40;;;18.70;98.70;;;;;;5154458;27;20247;-73
2023/05/04 07:11:14;;;;;;;10.50;7.07;;;17.60;99.90;;;;;;5155355;27;20581;-77
2023/05/04 07:13:42;;;;;;;8.27;6.40;;;17.60;99.90;;;;;;5153065;27;20262;-73
2023/05/04 07:16:10;;;;;;;9.40;6.70;;;17.40;99.90;;;;;;5153530;27;20228;-76
2023/05/04 07:18:39;;;;;;;8.23;6.53;;;17.30;99.90;;;;;;5153093;27;20296;-74
2023/05/04 07:21:10;;;;;;;8.73;6.77;;;17.50;99.90;;;;;;5145959;27;20202;-75
2023/05/04 07:23:45;;;;;;;7.17;6.13;;;18.20;99.90;;;;;;5133069;28;20547;-75
2023/05/04 07:26:13;;;;;;;7.53;6.50;;;18.90;99.40;;;;;;5132794;28;20577;-74
2023/05/04 07:28:42;;;;;;;8.57;6.13;;;18.00;99.30;;;;;;5132464;28;20756;-75
2023/05/04 07:31:11;;;;;;;6.70;5.93;;;19.00;98.60;;;;;;5132846;27;20655;-75
2023/05/04 07:33:39;;;;;;;8.77;6.30;;;19.80;97.80;;;;;;5133014;28;20662;-72
2023/05/04 07:36:08;;;;;;;8.57;6.50;;;20.10;95.70;;;;;;5134327;27;20213;-74
2023/05/04 07:38:37;;;;;;;7.30;6.07;;;19.00;97.40;;;;;;5151248;27;20211;-75
2023/05/04 07:41:07;;;;;;;8.47;6.00;;;18.50;97.40;;;;;;5152060;27;20211;-71
2023/05/04 07:43:35;;;;;;;8.47;6.03;;;19.10;98.10;;;;;;5159822;27;20633;-75
2023/05/04 07:46:03;;;;;;;10.03;5.83;;;18.80;96.50;;;;;;5185885;27;20216;-75
2023/05/04 07:48:33;;;;;;;9.47;5.93;;;18.70;97.10;;;;;;5165067;27;20323;-76
2023/05/04 07:51:01;;;;;;;6.10;5.50;;;18.70;96.60;;;;;;5162185;27;20193;-75
2023/05/04 07:53:29;;;;;;;7.67;5.77;;;19.20;95.60;;;;;;5154254;27;20313;-76
2023/05/04 07:55:59;;;;;;;7.33;5.90;;;17.70;97.40;;;;;;5153266;27;20680;-78
2023/05/04 07:58:29;;;;;;;6.90;5.73;;;17.60;98.50;;;;;;5152230;27;20204;-76
2023/05/04 08:00:57;;;;;;;7.73;5.83;;;18.10;99.70;;;;;;5153565;27;20205;-76
2023/05/04 08:03:25;;;;;;;7.37;5.40;;;18.70;98.20;;;;;;5152967;27;20204;-74
2023/05/04 08:05:53;;;;;;;6.43;5.37;;;19.40;96.80;;;;;;5146244;27;20293;-76
2023/05/04 08:08:21;;;;;;;6.33;5.10;;;20.40;94.20;;;;;;5149554;27;20311;-76
2023/05/04 08:10:49;;;;;;;10.73;5.30;;;20.20;92.80;;;;;;5147831;27;20213;-77
2023/05/04 08:13:17;;;;;;;6.93;5.50;;;20.90;92.90;;;;;;5152747;27;20212;-75
2023/05/04 08:15:46;;;;;;;6.60;5.10;;;21.60;90.40;;;;;;5143312;27;20731;-76
2023/05/04 08:18:14;;;;;;;6.23;5.13;;;20.90;90.00;;;;;;5132195;28;20284;-78
2023/05/04 08:20:42;;;;;;;7.17;5.30;;;21.30;90.00;;;;;;5132809;28;20231;-76
2023/05/04 08:23:11;;;;;;;7.13;5.20;;;20.80;90.00;;;;;;5132001;27;20683;-76
2023/05/04 08:25:39;;;;;;;6.63;5.63;;;20.10;90.20;;;;;;5137046;27;20654;-75
2023/05/04 08:28:07;;;;;;;6.63;5.67;;;20.00;91.20;;;;;;5133151;27;20229;-75
2023/05/04 08:30:36;;;;;;;9.13;6.00;;;20.00;91.30;;;;;;5160802;27;20292;-76
2023/05/04 08:33:06;;;;;;;7.73;5.57;;;19.70;91.90;;;;;;5150542;27;20207;-74
2023/05/04 08:35:34;;;;;;;7.00;5.53;;;20.10;92.20;;;;;;5148391;27;20253;-75
2023/05/04 08:38:03;;;;;;;7.20;5.70;;;20.30;92.40;;;;;;5156778;27;20659;-72
2023/05/04 08:40:31;;;;;;;7.13;5.43;;;20.70;91.00;;;;;;5156343;27;20244;-74
2023/05/04 08:42:59;;;;;;;7.67;5.50;;;20.40;90.50;;;;;;5133741;27;20202;-73
2023/05/04 08:45:28;;;;;;;6.17;5.43;;;21.40;89.00;;;;;;5135518;27;20229;-75
2023/05/04 08:47:56;;;;;;;6.80;5.50;;;20.90;90.00;;;;;;5135436;27;20236;-76
2023/05/04 08:50:26;;;;;;;8.93;5.67;;;21.20;89.60;;;;;;5162671;27;20569;-74
2023/05/04 08:52:59;;;;;;;8.40;5.97;;;22.40;89.70;;;;;;5163015;27;20240;-74
2023/05/04 08:55:30;;;;;;;5.72;5.20;;;22.80;83.80;;;;;;5160290;27;20208;-75
2023/05/04 08:58:04;;;;;;;9.55;6.10;;;23.70;82.60;;;;;;5153762;27;20203;-75
2023/05/04 09:00:33;;;;;;;7.18;5.65;;;22.90;82.00;;;;;;5153449;27;20204;-75
2023/05/04 09:03:03;;;;;;;7.32;5.40;;;23.20;77.50;;;;;;5159133;27;20553;-76
2023/05/04 09:05:33;;;;;;;6.30;5.70;;;23.50;77.10;;;;;;5165465;27;20307;-76
2023/05/04 09:08:01;;;;;;;7.70;5.85;;;23.30;75.50;;;;;;5159363;27;20617;-77
2023/05/04 09:10:30;;;;;;;7.40;5.30;;;22.00;80.00;;;;;;5158548;27;20316;-78
2023/05/04 09:12:58;;;;;;;6.55;5.32;;;23.70;77.20;;;;;;5155570;27;20201;-75
2023/05/04 09:15:26;;;;;;;7.47;5.20;;;23.50;75.60;;;;;;5165914;27;20209;-77
2023/05/04 09:17:57;;;;;;;7.45;5.65;;;23.80;72.00;;;;;;5162225;27;20197;-76
2023/05/04 09:20:25;;;;;;;6.90;5.32;;;24.00;71.60;;;;;;5134011;27;20235;-76
2023/05/04 09:23:03;;;;;;;6.18;5.40;;;24.20;68.60;;;;;;5146840;27;20212;-76
2023/05/04 09:25:31;;;;;;;7.97;5.47;;;23.70;71.20;;;;;;5155973;27;20299;-74
2023/05/04 09:27:59;;;;;;;6.40;5.45;;;22.70;68.80;;;;;;5155335;27;20312;-76
2023/05/04 09:30:27;;;;;;;7.20;5.50;;;24.10;69.20;;;;;;5136566;27;20606;-72
2023/05/04 09:32:56;;;;;;;7.32;5.70;;;23.80;67.30;;;;;;5135385;27;20288;-73
2023/05/04 09:35:30;;;;;;;7.55;5.43;;;25.00;64.60;;;;;;5134720;27;20220;-74
2023/05/04 09:38:02;;;;;;;6.32;4.97;;;25.20;64.10;;;;;;5141355;27;20185;-78
2023/05/04 09:40:31;;;;;;;8.65;5.40;;;26.10;65.50;;;;;;5135162;27;20205;-76
2023/05/04 09:42:59;;;;;;;6.90;4.90;;;26.50;60.50;;;;;;5134021;27;20254;-76
2023/05/04 09:45:39;;;;;;;6.53;5.22;;;26.90;62.60;;;;;;5133796;27;20225;-76
2023/05/04 09:48:17;;;;;;;7.00;5.60;;;26.50;56.30;;;;;;5134485;27;20238;-77
2023/05/04 09:50:54;;;;;;;7.20;5.18;;;26.20;58.80;;;;;;5134482;27;20205;-77
2023/05/04 09:53:24;;;;;;;8.82;5.38;;;26.30;57.70;;;;;;5134265;27;20196;-77
2023/05/04 09:56:14;;;;;;;6.78;5.65;;;27.40;55.80;;;;;;5134268;27;20604;-76
2023/05/04 09:58:45;;;;;;;7.57;5.15;;;26.60;55.20;;;;;;5140648;27;20310;-76
2023/05/04 10:01:13;;;;;;;6.00;5.13;;;26.50;54.20;;;;;;5156305;27;20236;-75
2023/05/04 10:03:43;;;;;;;6.40;5.70;;;27.00;54.30;;;;;;5153919;27;20197;-76
2023/05/04 10:06:11;;;;;;;6.93;5.25;;;26.70;52.90;;;;;;5156003;27;20208;-76
2023/05/04 10:08:41;;;;;;;6.88;5.45;;;26.30;53.80;;;;;;5154257;27;20224;-75
2023/05/04 10:11:09;;;;;;;6.53;4.70;;;25.10;55.30;;;;;;5154165;27;20228;-75
2023/05/04 10:13:38;;;;;;;7.07;5.57;;;25.20;58.80;;;;;;5153502;27;20292;-76
2023/05/04 10:16:18;;;;;;;6.82;5.80;;;23.90;55.30;;;;;;5162686;27;20209;-77
2023/05/04 10:19:02;;;;;;;7.25;5.63;;;23.80;57.80;;;;;;5166510;27;20191;-77
2023/05/04 10:21:34;;;;;;;7.43;5.43;;;24.90;58.40;;;;;;5175404;27;20204;-76
2023/05/04 10:24:32;;;;;;;7.07;5.25;;;26.20;57.00;;;;;;5148263;27;20208;-73
2023/05/04 10:27:10;;;;;;;7.63;5.55;;;24.90;56.80;;;;;;5131289;27;20212;-75
2023/05/04 10:29:39;;;;;;;7.70;5.43;;;25.10;56.70;;;;;;5143547;27;20216;-75
2023/05/04 10:32:17;;;;;;;9.70;6.30;;;24.70;56.40;;;;;;5143903;27;20217;-78
2023/05/04 10:34:46;;;;;;;6.82;5.68;;;24.00;56.80;;;;;;5133207;27;20245;-78
2023/05/04 10:37:17;;;;;;;6.65;5.70;;;24.60;57.10;;;;;;5133836;27;20243;-75
2023/05/04 10:39:52;;;;;;;7.28;5.70;;;24.80;56.60;;;;;;5133597;27;20228;-75
2023/05/04 10:42:25;;;;;;;7.60;5.30;;;24.90;56.10;;;;;;5156043;27;20621;-75
2023/05/04 10:44:55;;;;;;;8.43;5.72;;;25.50;53.90;;;;;;5159282;27;20255;-75
2023/05/04 10:47:31;;;;;;;6.95;5.95;;;25.20;54.70;;;;;;5162687;27;20568;-74
2023/05/04 10:50:04;;;;;;;7.82;6.07;;;24.70;56.00;;;;;;5157746;27;20225;-74
2023/05/04 10:52:32;;;;;;;7.63;5.65;;;24.70;55.40;;;;;;5146739;27;20698;-76
2023/05/04 10:55:02;;;;;;;7.13;5.70;;;25.50;56.00;;;;;;5133307;27;20213;-75
2023/05/04 10:57:32;;;;;;;7.47;5.72;;;25.10;55.00;;;;;;5133640;27;20632;-74
2023/05/04 11:00:00;;;;;;;7.43;6.03;;;24.40;56.30;;;;;;5148452;27;20188;-75
2023/05/04 11:02:28;;;;;;;7.18;5.78;;;23.80;55.60;;;;;;5157968;27;20197;-77
2023/05/04 11:05:02;;;;;;;8.63;6.00;;;24.20;55.00;;;;;;5166251;27;20201;-75
2023/05/04 11:07:36;;;;;;;7.85;6.38;;;23.60;56.00;;;;;;5156972;27;20201;-74
2023/05/04 11:10:05;;;;;;;6.15;5.10;;;24.00;56.50;;;;;;5161945;27;20228;-75
2023/05/04 11:12:35;;;;;;;6.35;5.65;;;24.40;56.60;;;;;;5157674;27;20526;-76
2023/05/04 11:15:05;;;;;;;7.18;5.78;;;24.90;56.30;;;;;;5162677;27;20536;-75
2023/05/04 11:17:34;;;;;;;7.22;5.57;;;24.30;55.20;;;;;;5157840;27;20197;-77
2023/05/04 11:20:02;;;;;;;6.75;6.03;;;23.80;56.40;;;;;;5160610;27;20189;-77
2023/05/04 11:22:32;;;;;;;7.73;5.57;;;23.00;55.10;;;;;;5150669;27;20227;-76
2023/05/04 11:25:00;;;;;;;8.37;5.83;;;22.40;57.50;;;;;;5153832;27;20561;-75
2023/05/04 11:27:29;;;;;;;5.97;5.33;;;22.40;59.10;;;;;;5153941;27;20213;-76
2023/05/04 11:30:00;;;;;;;8.60;6.00;;;22.60;59.80;;;;;;5158588;27;20315;-74
2023/05/04 11:32:35;;;;;;;7.00;6.30;;;23.00;59.20;;;;;;5153411;27;20211;-74
2023/05/04 11:35:05;;;;;;;7.10;5.70;;;22.30;58.80;;;;;;5154048;27;20208;-74
2023/05/04 11:37:39;;;;;;;8.53;5.80;;;22.20;62.70;;;;;;5153688;27;20209;-75
2023/05/04 11:40:11;;;;;;;6.37;4.80;;;22.10;62.20;;;;;;5136779;27;20697;-75
2023/05/04 11:42:41;;;;;;;10.17;6.40;;;22.60;66.00;;;;;;5133000;28;20254;-73
2023/05/04 11:45:15;;;;;;;7.97;5.80;;;22.40;59.50;;;;;;5132895;28;20742;-74
2023/05/04 11:47:44;;;;;;;8.03;6.40;;;22.00;64.00;;;;;;5133147;27;20589;-75
2023/05/04 11:50:14;;;;;;;8.53;6.53;;;22.00;60.30;;;;;;5132328;28;20228;-75
2023/05/04 11:52:43;;;;;;;9.83;6.27;;;21.30;63.60;;;;;;5133067;28;20205;-74
2023/05/04 11:55:13;;;;;;;7.93;5.87;;;21.10;63.40;;;;;;5132705;28;20209;-76
2023/05/04 11:57:41;;;;;;;7.53;5.70;;;21.00;62.20;;;;;;5149314;27;20257;-77
2023/05/04 12:00:11;;;;;;;8.47;5.50;;;20.40;62.30;;;;;;5156707;27;20209;-74
2023/05/04 12:02:40;;;;;;;6.27;5.40;;;21.10;67.20;;;;;;5162603;27;20258;-75
2023/05/04 12:05:12;;;;;;;6.67;5.50;;;21.20;62.60;;;;;;5156855;27;20208;-78
2023/05/04 12:07:41;;;;;;;7.30;5.80;;;21.10;63.20;;;;;;5159192;27;20249;-74
2023/05/04 12:10:09;;;;;;;7.43;5.70;;;21.30;65.70;;;;;;5174877;27;20223;-76
2023/05/04 12:12:37;;;;;;;7.70;5.77;;;21.70;68.20;;;;;;5165955;27;20542;-76
2023/05/04 12:15:06;;;;;;;7.20;5.33;;;21.60;62.20;;;;;;5136311;27;20210;-75
2023/05/04 12:17:43;;;;;;;7.47;5.80;;;21.20;64.10;;;;;;5134822;27;20275;-76
2023/05/04 12:20:23;;;;;;;8.90;5.73;;;20.70;62.70;;;;;;5135648;27;20258;-75
2023/05/04 12:22:51;;;;;;;6.73;5.43;;;21.10;63.20;;;;;;5136443;27;20193;-74
2023/05/04 12:25:20;;;;;;;8.90;5.40;;;21.40;64.00;;;;;;5136716;27;20232;-75
2023/05/04 12:27:48;;;;;;;6.03;4.90;;;21.40;66.20;;;;;;5136140;27;20217;-75
2023/05/04 12:30:17;;;;;;;7.63;5.40;;;21.60;61.40;;;;;;5147281;27;20232;-77
2023/05/04 12:32:46;;;;;;;9.50;6.13;;;21.30;61.50;;;;;;5156718;27;20204;-78
2023/05/04 12:35:14;;;;;;;6.80;5.00;;;21.00;63.40;;;;;;5155561;27;20252;-78
2023/05/04 12:37:42;;;;;;;6.53;5.17;;;21.20;64.00;;;;;;5150328;27;20650;-76
2023/05/04 12:40:11;;;;;;;6.27;4.97;;;21.20;59.50;;;;;;5136072;27;20663;-75
2023/05/04 12:42:55;;;;;;;8.07;5.53;;;21.40;63.20;;;;;;5137119;27;20203;-75
2023/05/04 12:45:23;;;;;;;6.70;5.13;;;20.70;59.60;;;;;;5136058;27;20236;-74
2023/05/04 12:47:53;;;;;;;6.83;5.27;;;21.00;61.70;;;;;;5135673;27;20447;-77
2023/05/04 12:50:22;;;;;;;7.77;5.60;;;21.30;63.60;;;;;;5136399;27;20232;-75
2023/05/04 12:52:50;;;;;;;6.83;5.10;;;20.80;59.50;;;;;;5135635;27;20212;-78